createdAt,value
2017-08-07T00:00:07.409Z,79.80
2017-08-07T00:02:35.020Z,79.60
2017-08-07T00:05:02.556Z,80.00
2017-08-07T00:07:30.125Z,80.00
2017-08-07T00:09:57.722Z,80.30
2017-08-07T00:12:25.269Z,79.70
2017-08-07T00:14:52.805Z,79.50
2017-08-07T00:17:20.380Z,79.80
2017-08-07T00:19:47.925Z,79.60
2017-08-07T00:22:15.772Z,79.70
2017-08-07T00:24:44.161Z,80.00
2017-08-07T00:27:13.389Z,80.00
2017-08-07T00:29:40.941Z,79.90
2017-08-07T00:32:08.504Z,79.60
2017-08-07T00:34:36.057Z,79.30
2017-08-07T00:37:03.601Z,79.40
2017-08-07T00:39:31.945Z,79.60
2017-08-07T00:41:59.489Z,79.50
2017-08-07T00:44:27.038Z,79.40
2017-08-07T00:46:54.648Z,79.10
2017-08-07T00:49:22.965Z,79.60
2017-08-07T00:51:50.565Z,79.00
2017-08-07T00:54:18.137Z,78.90
2017-08-07T00:56:45.689Z,80.00
2017-08-07T00:59:13.233Z,80.10
2017-08-07T01:01:40.844Z,80.20
2017-08-07T01:04:08.388Z,79.40
2017-08-07T01:06:36.713Z,79.20
2017-08-07T01:09:04.324Z,79.20
2017-08-07T01:11:31.874Z,79.70
2017-08-07T01:13:59.412Z,78.80
2017-08-07T01:16:27.009Z,78.40
2017-08-07T01:18:54.557Z,78.50
2017-08-07T01:21:22.101Z,78.80
2017-08-07T01:23:50.169Z,79.40
2017-08-07T01:26:17.712Z,79.50
2017-08-07T01:28:45.273Z,79.60
2017-08-07T01:31:12.912Z,80.30
2017-08-07T01:33:40.456Z,80.90
2017-08-07T01:36:08.053Z,80.60
2017-08-07T01:38:35.635Z,81.00
2017-08-07T01:41:03.180Z,81.10
2017-08-07T01:43:30.729Z,80.00
2017-08-07T01:45:58.304Z,80.50
2017-08-07T01:48:25.852Z,80.40
2017-08-07T01:50:53.392Z,80.30
2017-08-07T01:53:21.140Z,79.60
2017-08-07T01:55:48.704Z,80.40
2017-08-07T01:58:16.261Z,80.50
2017-08-07T02:00:43.841Z,80.50
2017-08-07T02:03:11.385Z,80.00
2017-08-07T02:05:38.938Z,79.70
2017-08-07T02:08:06.561Z,79.30
2017-08-07T02:10:34.128Z,79.90
2017-08-07T02:13:01.699Z,80.50
2017-08-07T02:15:29.309Z,80.50
2017-08-07T02:17:56.852Z,80.40
2017-08-07T02:20:24.399Z,80.00
2017-08-07T02:22:51.982Z,79.70
2017-08-07T02:25:19.949Z,79.60
2017-08-07T02:27:47.505Z,79.70
2017-08-07T02:30:15.085Z,79.40
2017-08-07T02:32:42.638Z,79.10
2017-08-07T02:35:10.198Z,79.30
2017-08-07T02:37:37.824Z,78.90
2017-08-07T02:40:05.360Z,78.90
2017-08-07T02:42:32.905Z,79.00
2017-08-07T02:45:00.482Z,79.00
2017-08-07T02:47:28.040Z,78.80
2017-08-07T02:49:55.593Z,78.70
2017-08-07T02:52:23.161Z,79.00
2017-08-07T02:54:50.704Z,78.90
2017-08-07T02:57:18.245Z,78.70
2017-08-07T02:59:45.898Z,78.60
2017-08-07T03:02:14.086Z,78.70
2017-08-07T03:04:41.645Z,79.10
2017-08-07T03:07:09.219Z,79.30
2017-08-07T03:09:36.761Z,79.60
2017-08-07T03:12:04.317Z,79.70
2017-08-07T03:14:31.937Z,79.90
2017-08-07T03:17:00.253Z,79.80
2017-08-07T03:19:27.801Z,79.80
2017-08-07T03:21:55.585Z,80.00
2017-08-07T03:24:23.137Z,79.70
2017-08-07T03:26:51.148Z,79.30
2017-08-07T03:29:18.713Z,79.20
2017-08-07T03:31:46.256Z,79.40
2017-08-07T03:34:13.808Z,80.20
2017-08-07T03:36:41.389Z,80.20
2017-08-07T03:39:08.940Z,80.10
2017-08-07T03:41:36.480Z,80.20
2017-08-07T03:44:04.093Z,80.30
2017-08-07T03:46:31.636Z,80.20
2017-08-07T03:48:59.182Z,80.50
2017-08-07T03:51:26.778Z,80.30
2017-08-07T03:53:54.333Z,80.50
2017-08-07T03:56:22.653Z,80.80
2017-08-07T03:58:50.240Z,80.60
2017-08-07T04:01:17.785Z,80.70
2017-08-07T04:03:45.345Z,81.00
2017-08-07T04:06:12.977Z,80.70
2017-08-07T04:08:40.529Z,80.80
2017-08-07T04:11:08.100Z,80.50
2017-08-07T04:13:35.682Z,80.80
2017-08-07T04:16:03.232Z,80.10
2017-08-07T04:18:30.780Z,80.10
2017-08-07T04:20:58.397Z,80.20
2017-08-07T04:23:25.958Z,80.00
2017-08-07T04:25:53.505Z,80.00
2017-08-07T04:28:21.492Z,79.50
2017-08-07T04:30:49.811Z,80.00
2017-08-07T04:33:17.365Z,79.40
2017-08-07T04:35:44.945Z,79.60
2017-08-07T04:38:12.495Z,79.50
2017-08-07T04:40:40.041Z,79.60
2017-08-07T04:43:07.615Z,79.50
2017-08-07T04:45:35.161Z,79.40
2017-08-07T04:48:02.714Z,79.30
2017-08-07T04:50:30.372Z,78.90
2017-08-07T04:52:57.912Z,79.00
2017-08-07T04:55:26.462Z,79.30
2017-08-07T04:57:54.028Z,78.90
2017-08-07T05:00:21.573Z,79.00
2017-08-07T05:02:49.124Z,79.40
2017-08-07T05:05:17.637Z,79.50
2017-08-07T05:07:45.186Z,79.20
2017-08-07T05:10:12.753Z,79.40
2017-08-07T05:12:40.362Z,79.70
2017-08-07T05:15:07.913Z,79.80
2017-08-07T05:17:35.465Z,79.30
2017-08-07T05:20:03.037Z,80.00
2017-08-07T05:22:30.586Z,80.00
2017-08-07T05:24:58.124Z,80.40
2017-08-07T05:27:25.749Z,79.60
2017-08-07T05:29:53.495Z,78.70
2017-08-07T05:32:21.045Z,78.40
2017-08-07T05:34:48.657Z,78.50
2017-08-07T05:37:16.201Z,79.10
2017-08-07T05:39:43.744Z,79.30
2017-08-07T05:42:11.312Z,79.50
2017-08-07T05:44:38.856Z,79.30
2017-08-07T05:47:06.407Z,79.10
2017-08-07T05:49:33.987Z,78.70
2017-08-07T05:52:01.524Z,78.50
2017-08-07T05:54:29.076Z,78.70
2017-08-07T05:56:56.689Z,78.80
2017-08-07T05:59:24.238Z,79.00
2017-08-07T06:01:51.784Z,79.70
2017-08-07T06:04:19.358Z,79.10
2017-08-07T06:06:46.914Z,78.90
2017-08-07T06:09:14.492Z,78.80
2017-08-07T06:11:42.066Z,78.40
2017-08-07T06:14:09.617Z,77.00
2017-08-07T06:16:37.160Z,74.60
2017-08-07T06:19:04.764Z,70.90
2017-08-07T06:21:33.073Z,63.20
2017-08-07T06:24:00.633Z,63.30
2017-08-07T06:26:28.241Z,60.80
2017-08-07T06:28:55.776Z,59.00
2017-08-07T06:31:23.605Z,56.80
2017-08-07T06:33:52.001Z,54.10
2017-08-07T06:36:19.542Z,54.10
2017-08-07T06:38:47.084Z,51.10
2017-08-07T06:41:14.658Z,50.50
2017-08-07T06:43:42.971Z,49.40
2017-08-07T06:46:10.510Z,49.30
2017-08-07T06:48:38.081Z,48.10
2017-08-07T06:51:05.621Z,48.40
2017-08-07T06:53:33.173Z,48.30
2017-08-07T06:56:01.536Z,45.90
2017-08-07T06:58:29.087Z,45.80
2017-08-07T07:00:56.633Z,44.50
2017-08-07T07:03:24.216Z,43.20
2017-08-07T07:05:51.752Z,42.30
2017-08-07T07:08:19.293Z,42.80
2017-08-07T07:10:46.864Z,42.50
2017-08-07T07:13:14.400Z,40.70
2017-08-07T07:15:41.933Z,40.00
2017-08-07T07:18:09.579Z,40.20
2017-08-07T07:20:37.112Z,39.10
2017-08-07T07:23:04.654Z,38.90
2017-08-07T07:25:32.228Z,38.50
2017-08-07T07:27:59.763Z,36.90
2017-08-07T07:30:27.300Z,37.60
2017-08-07T07:32:55.180Z,37.20
2017-08-07T07:35:22.725Z,36.30
2017-08-07T07:37:51.034Z,36.60
2017-08-07T07:40:18.696Z,36.60
2017-08-07T07:42:46.237Z,37.50
2017-08-07T07:45:13.778Z,38.40
2017-08-07T07:47:42.104Z,37.80
2017-08-07T07:50:09.643Z,37.80
2017-08-07T07:52:37.185Z,36.30
2017-08-07T07:55:04.753Z,34.90
2017-08-07T07:57:32.305Z,35.40
2017-08-07T08:00:00.382Z,34.90
2017-08-07T08:02:27.994Z,34.70
2017-08-07T08:04:55.857Z,34.60
2017-08-07T08:07:26.292Z,33.80
2017-08-07T08:09:53.865Z,34.90
2017-08-07T08:12:22.185Z,34.10
2017-08-07T08:14:53.392Z,33.40
2017-08-07T08:17:20.981Z,32.80
2017-08-07T08:19:48.612Z,34.40
2017-08-07T08:22:16.932Z,35.90
2017-08-07T08:24:44.707Z,35.80
2017-08-07T08:27:12.255Z,36.10
2017-08-07T08:29:44.743Z,36.90
2017-08-07T08:32:13.734Z,36.20
2017-08-07T08:34:41.723Z,34.50
2017-08-07T08:37:09.964Z,34.30
2017-08-07T08:39:37.545Z,34.30
2017-08-07T08:42:05.085Z,34.60
2017-08-07T08:44:32.629Z,32.90
2017-08-07T08:47:00.433Z,33.10
2017-08-07T08:49:27.973Z,32.80
2017-08-07T08:51:55.508Z,32.90
2017-08-07T08:54:23.073Z,31.40
2017-08-07T08:56:50.617Z,31.70
2017-08-07T08:59:19.893Z,32.20
2017-08-07T09:01:47.482Z,32.40
2017-08-07T09:04:15.041Z,32.10
2017-08-07T09:06:42.584Z,30.00
2017-08-07T09:09:10.192Z,30.00
2017-08-07T09:11:37.732Z,30.40
2017-08-07T09:14:05.278Z,31.80
2017-08-07T09:16:34.346Z,34.30
2017-08-07T09:19:01.885Z,34.30
2017-08-07T09:21:29.429Z,34.50
2017-08-07T09:23:57.002Z,35.70
2017-08-07T09:26:24.549Z,38.70
2017-08-07T09:28:52.101Z,39.80
2017-08-07T09:31:19.730Z,39.50
2017-08-07T09:33:47.284Z,41.70
2017-08-07T09:36:16.051Z,42.10
2017-08-07T09:38:43.616Z,42.10
2017-08-07T09:41:11.153Z,41.20
2017-08-07T09:43:38.728Z,39.90
2017-08-07T09:46:06.697Z,39.60
2017-08-07T09:48:34.236Z,39.40
2017-08-07T09:51:02.521Z,36.70
2017-08-07T09:53:30.313Z,36.60
2017-08-07T09:55:57.852Z,35.70
2017-08-07T09:58:25.401Z,35.90
2017-08-07T10:00:53.353Z,37.00
2017-08-07T10:03:20.897Z,39.70
2017-08-07T10:05:49.202Z,44.30
2017-08-07T10:08:16.784Z,44.20
2017-08-07T10:10:44.326Z,45.40
2017-08-07T10:13:11.873Z,47.60
2017-08-07T10:15:39.497Z,48.10
2017-08-07T10:18:07.037Z,46.40
2017-08-07T10:20:34.581Z,45.60
2017-08-07T10:23:02.145Z,46.20
2017-08-07T10:25:29.682Z,47.10
2017-08-07T10:27:57.256Z,47.10
2017-08-07T10:30:33.777Z,47.80
2017-08-07T10:33:01.339Z,48.90
2017-08-07T10:35:29.261Z,49.10
2017-08-07T10:37:57.817Z,49.50
2017-08-07T10:40:25.373Z,50.60
2017-08-07T10:42:54.775Z,50.10
2017-08-07T10:45:22.442Z,51.30
2017-08-07T10:47:59.035Z,51.60
2017-08-07T10:50:26.852Z,51.80
2017-08-07T10:52:54.610Z,50.00
2017-08-07T10:55:22.275Z,50.10
2017-08-07T10:57:51.131Z,50.60
2017-08-07T11:00:18.719Z,51.00
2017-08-07T11:02:46.278Z,51.30
2017-08-07T11:05:14.731Z,48.80
2017-08-07T11:07:42.374Z,48.70
2017-08-07T11:10:09.941Z,50.10
2017-08-07T11:12:37.667Z,49.90
2017-08-07T11:15:05.264Z,50.50
2017-08-07T11:17:33.070Z,50.50
2017-08-07T11:20:00.781Z,49.50
2017-08-07T11:22:28.465Z,50.20
2017-08-07T11:24:56.082Z,50.60
2017-08-07T11:27:23.674Z,49.50
2017-08-07T11:29:51.234Z,50.10
2017-08-07T11:32:18.813Z,51.10
2017-08-07T11:34:55.723Z,49.30
2017-08-07T11:37:23.280Z,51.00
2017-08-07T11:39:58.971Z,50.50
2017-08-07T11:42:26.522Z,50.50
2017-08-07T11:44:54.147Z,51.20
2017-08-07T11:47:21.777Z,49.20
2017-08-07T11:49:49.324Z,50.30
2017-08-07T11:52:16.864Z,50.10
2017-08-07T11:54:44.433Z,49.50
2017-08-07T11:57:11.968Z,48.80
2017-08-07T11:59:39.606Z,50.00
2017-08-07T12:02:07.277Z,50.30
2017-08-07T12:07:10.925Z,50.90
2017-08-07T12:09:38.473Z,49.60
2017-08-07T12:12:06.195Z,49.40
2017-08-07T12:14:35.287Z,50.10
2017-08-07T12:17:02.848Z,49.20
2017-08-07T12:19:30.398Z,50.30
2017-08-07T12:21:58.017Z,50.00
2017-08-07T12:24:25.556Z,49.70
2017-08-07T12:26:53.861Z,48.90
2017-08-07T12:29:21.433Z,48.50
2017-08-07T12:31:48.973Z,48.90
2017-08-07T12:34:16.528Z,49.60
2017-08-07T12:36:44.953Z,49.20
2017-08-07T12:39:12.562Z,47.90
2017-08-07T12:41:41.489Z,49.00
2017-08-07T12:44:09.109Z,48.30
2017-08-07T12:46:36.672Z,49.10
2017-08-07T12:49:05.025Z,48.30
2017-08-07T12:51:34.065Z,48.20
2017-08-07T12:54:04.485Z,48.90
2017-08-07T12:56:32.054Z,50.00
2017-08-07T12:59:02.669Z,48.60
2017-08-07T13:01:32.079Z,50.20
2017-08-07T13:04:02.413Z,49.70
2017-08-07T13:06:33.798Z,48.80
2017-08-07T13:11:38.613Z,48.60
2017-08-07T13:14:07.517Z,50.00
2017-08-07T13:16:35.078Z,48.40
2017-08-07T13:19:05.281Z,48.30
2017-08-07T13:21:40.513Z,47.90
2017-08-07T13:24:08.137Z,48.90
2017-08-07T13:26:35.696Z,48.30
2017-08-07T13:29:03.258Z,47.60
2017-08-07T13:31:30.837Z,47.60
2017-08-07T13:33:58.393Z,47.60
2017-08-07T13:36:26.002Z,45.80
2017-08-07T13:38:53.592Z,46.40
2017-08-07T13:41:21.157Z,47.70
2017-08-07T13:43:49.052Z,47.80
2017-08-07T13:46:18.157Z,47.80
2017-08-07T13:48:45.741Z,47.80
2017-08-07T13:51:13.297Z,47.00
2017-08-07T13:53:40.897Z,48.30
2017-08-07T13:56:08.441Z,47.40
2017-08-07T13:58:42.854Z,45.80
2017-08-07T14:01:10.413Z,44.80
2017-08-07T14:03:37.986Z,46.10
2017-08-07T14:06:05.614Z,46.70
2017-08-07T14:08:33.165Z,46.20
2017-08-07T14:11:00.758Z,45.70
2017-08-07T14:13:28.391Z,45.20
2017-08-07T14:15:55.950Z,46.20
2017-08-07T14:18:23.517Z,45.60
2017-08-07T14:20:51.092Z,45.50
2017-08-07T14:23:18.654Z,44.50
2017-08-07T14:25:46.222Z,44.50
2017-08-07T14:28:13.852Z,45.90
2017-08-07T14:30:41.476Z,46.20
2017-08-07T14:33:09.013Z,46.30
2017-08-07T14:35:36.581Z,46.80
2017-08-07T14:38:04.122Z,45.70
2017-08-07T14:40:31.660Z,44.80
2017-08-07T14:42:59.224Z,44.80
2017-08-07T14:45:26.830Z,45.60
2017-08-07T14:47:54.365Z,46.00
2017-08-07T14:50:21.960Z,45.10
2017-08-07T14:52:49.497Z,45.90
2017-08-07T14:55:17.045Z,45.20
2017-08-07T14:57:44.734Z,45.30
2017-08-07T15:00:12.371Z,44.10
2017-08-07T15:02:39.958Z,45.30
2017-08-07T15:05:07.525Z,44.80
2017-08-07T15:07:35.063Z,45.40
2017-08-07T15:10:02.601Z,45.90
2017-08-07T15:12:30.253Z,45.50
2017-08-07T15:14:57.797Z,45.40
2017-08-07T15:17:25.345Z,45.50
2017-08-07T15:19:53.780Z,45.90
2017-08-07T15:22:21.322Z,45.90
2017-08-07T15:24:48.869Z,45.10
2017-08-07T15:27:16.448Z,45.20
2017-08-07T15:29:43.996Z,45.60
2017-08-07T15:32:11.533Z,46.20
2017-08-07T15:34:39.153Z,46.40
2017-08-07T15:37:06.697Z,45.40
2017-08-07T15:39:34.232Z,45.00
2017-08-07T15:42:01.801Z,45.30
2017-08-07T15:44:29.349Z,46.90
2017-08-07T15:46:57.113Z,46.00
2017-08-07T15:49:24.687Z,46.30
2017-08-07T15:51:52.221Z,45.40
2017-08-07T15:54:19.764Z,46.00
2017-08-07T15:56:47.370Z,46.20
2017-08-07T15:59:14.913Z,46.70
2017-08-07T16:01:42.453Z,46.10
2017-08-07T16:04:10.029Z,46.20
2017-08-07T16:06:37.568Z,45.40
2017-08-07T16:09:05.874Z,45.20
2017-08-07T16:11:33.448Z,45.20
2017-08-07T16:14:00.989Z,45.60
2017-08-07T16:16:28.576Z,45.50
2017-08-07T16:18:56.193Z,46.70
2017-08-07T16:21:23.749Z,46.40
2017-08-07T16:23:51.281Z,47.00
2017-08-07T16:26:18.884Z,46.70
2017-08-07T16:28:46.430Z,47.10
2017-08-07T16:31:13.964Z,47.00
2017-08-07T16:33:41.525Z,47.20
2017-08-07T16:36:09.066Z,46.90
2017-08-07T16:38:36.607Z,46.80
2017-08-07T16:41:04.371Z,47.20
2017-08-07T16:43:31.909Z,46.80
2017-08-07T16:45:59.449Z,46.90
2017-08-07T16:48:27.304Z,46.80
2017-08-07T16:50:54.844Z,47.60
2017-08-07T16:53:22.390Z,46.70
2017-08-07T16:55:49.960Z,47.20
2017-08-07T16:58:17.497Z,47.70
2017-08-07T17:00:45.057Z,47.90
2017-08-07T17:03:12.676Z,47.90
2017-08-07T17:05:40.252Z,47.50
2017-08-07T17:08:07.793Z,48.40
2017-08-07T17:10:35.361Z,48.30
2017-08-07T17:13:02.909Z,48.10
2017-08-07T17:15:31.225Z,49.60
2017-08-07T17:17:58.798Z,49.00
2017-08-07T17:20:26.344Z,49.30
2017-08-07T17:22:53.882Z,49.00
2017-08-07T17:25:21.492Z,49.30
2017-08-07T17:27:49.034Z,49.60
2017-08-07T17:30:16.577Z,49.90
2017-08-07T17:32:44.177Z,50.20
2017-08-07T17:35:12.369Z,50.40
2017-08-07T17:37:39.914Z,50.90
2017-08-07T17:40:07.473Z,51.10
2017-08-07T17:42:35.013Z,50.90
2017-08-07T17:45:02.553Z,51.20
2017-08-07T17:47:30.420Z,51.50
2017-08-07T17:49:59.304Z,51.90
2017-08-07T17:52:26.850Z,51.90
2017-08-07T17:54:55.298Z,52.40
2017-08-07T17:57:22.871Z,52.40
2017-08-07T17:59:50.444Z,52.50
2017-08-07T18:02:18.042Z,52.80
2017-08-07T18:04:45.586Z,53.80
2017-08-07T18:07:13.180Z,53.30
2017-08-07T18:09:40.795Z,53.80
2017-08-07T18:12:08.425Z,54.20
2017-08-07T18:14:35.959Z,54.20
2017-08-07T18:17:03.583Z,54.40
2017-08-07T18:19:31.202Z,54.70
2017-08-07T18:21:58.793Z,54.80
2017-08-07T18:24:27.151Z,54.90
2017-08-07T18:26:55.477Z,55.20
2017-08-07T18:29:23.016Z,55.20
2017-08-07T18:31:50.665Z,55.50
2017-08-07T18:34:18.282Z,55.70
2017-08-07T18:36:45.843Z,55.50
2017-08-07T18:39:13.659Z,55.70
2017-08-07T18:41:41.265Z,55.90
2017-08-07T18:44:08.871Z,55.90
2017-08-07T18:46:36.449Z,56.30
2017-08-07T18:49:03.997Z,56.50
2017-08-07T18:51:32.016Z,56.80
2017-08-07T18:53:59.621Z,57.10
2017-08-07T18:56:27.154Z,57.30
2017-08-07T18:58:54.704Z,57.90
2017-08-07T19:01:22.281Z,58.10
2017-08-07T19:03:49.817Z,58.30
2017-08-07T19:06:17.370Z,58.50
2017-08-07T19:08:44.942Z,58.50
2017-08-07T19:11:12.489Z,58.60
2017-08-07T19:13:40.035Z,58.70
2017-08-07T19:16:07.641Z,58.90
2017-08-07T19:18:35.181Z,59.10
2017-08-07T19:21:02.725Z,58.90
2017-08-07T19:23:30.298Z,59.10
2017-08-07T19:25:57.849Z,59.40
2017-08-07T19:28:25.398Z,59.30
2017-08-07T19:30:53.146Z,59.60
2017-08-07T19:33:20.697Z,59.80
2017-08-07T19:35:48.256Z,59.90
2017-08-07T19:38:15.888Z,60.00
2017-08-07T19:40:43.429Z,60.00
2017-08-07T19:43:10.977Z,60.50
2017-08-07T19:45:38.612Z,60.60
2017-08-07T19:48:06.157Z,60.80
2017-08-07T19:50:33.701Z,61.20
2017-08-07T19:53:01.338Z,61.00
2017-08-07T19:55:28.880Z,62.10
2017-08-07T19:57:56.424Z,61.90
2017-08-07T20:00:24.072Z,61.80
2017-08-07T20:02:51.622Z,62.70
2017-08-07T20:05:19.937Z,62.10
2017-08-07T20:07:47.532Z,62.10
2017-08-07T20:10:15.080Z,62.40
2017-08-07T20:12:42.622Z,62.70
2017-08-07T20:15:10.210Z,62.40
2017-08-07T20:17:37.752Z,62.70
2017-08-07T20:20:05.289Z,62.50
2017-08-07T20:22:33.137Z,62.50
2017-08-07T20:25:00.685Z,62.60
2017-08-07T20:27:28.220Z,62.80
2017-08-07T20:29:55.785Z,63.20
2017-08-07T20:32:23.337Z,63.00
2017-08-07T20:34:50.881Z,63.10
2017-08-07T20:37:18.444Z,63.10
2017-08-07T20:39:45.989Z,63.40
2017-08-07T20:42:13.537Z,63.80
2017-08-07T20:44:41.145Z,63.90
2017-08-07T20:47:08.686Z,64.10
2017-08-07T20:49:36.236Z,64.20
2017-08-07T20:52:03.945Z,64.50
2017-08-07T20:54:31.848Z,64.60
2017-08-07T20:56:59.398Z,64.70
2017-08-07T20:59:26.970Z,64.80
2017-08-07T21:01:54.522Z,64.90
2017-08-07T21:04:22.060Z,65.00
2017-08-07T21:06:49.686Z,65.20
2017-08-07T21:09:17.235Z,65.20
2017-08-07T21:11:44.786Z,65.40
2017-08-07T21:14:12.367Z,65.30
2017-08-07T21:16:39.909Z,65.30
2017-08-07T21:19:07.462Z,65.70
2017-08-07T21:21:35.033Z,65.90
2017-08-07T21:24:02.574Z,66.10
2017-08-07T21:26:30.129Z,65.70
2017-08-07T21:28:57.745Z,65.60
2017-08-07T21:31:25.312Z,65.90
2017-08-07T21:33:53.622Z,66.10
2017-08-07T21:36:21.210Z,66.10
2017-08-07T21:38:48.749Z,66.90
2017-08-07T21:41:16.289Z,66.20
2017-08-07T21:43:43.872Z,66.30
2017-08-07T21:46:11.417Z,66.10
2017-08-07T21:48:38.969Z,66.10
2017-08-07T21:51:06.577Z,66.00
2017-08-07T21:53:34.127Z,66.10
2017-08-07T21:56:01.721Z,66.70
2017-08-07T21:58:30.102Z,67.70
2017-08-07T22:00:58.421Z,66.80
2017-08-07T22:03:25.960Z,66.80
2017-08-07T22:05:53.549Z,66.70
2017-08-07T22:08:21.101Z,67.00
2017-08-07T22:10:48.649Z,67.10
2017-08-07T22:13:16.262Z,67.30
2017-08-07T22:15:43.809Z,67.60
2017-08-07T22:18:11.353Z,68.30
2017-08-07T22:20:38.925Z,68.40
2017-08-07T22:23:06.469Z,67.70
2017-08-07T22:25:34.008Z,67.90
2017-08-07T22:28:01.572Z,68.20
2017-08-07T22:30:29.113Z,68.20
2017-08-07T22:32:56.653Z,68.10
2017-08-07T22:35:25.033Z,67.80
2017-08-07T22:37:53.345Z,67.60
2017-08-07T22:40:20.888Z,68.00
2017-08-07T22:42:49.233Z,68.00
2017-08-07T22:45:16.788Z,67.80
2017-08-07T22:47:44.325Z,68.10
2017-08-07T22:50:11.896Z,68.00
2017-08-07T22:52:39.445Z,68.00
2017-08-07T22:55:06.985Z,68.10
2017-08-07T22:57:34.902Z,69.10
2017-08-07T23:00:02.445Z,68.90
2017-08-07T23:02:29.989Z,69.00
2017-08-07T23:04:57.604Z,68.70
2017-08-07T23:07:25.922Z,68.50
2017-08-07T23:09:53.469Z,68.40
2017-08-07T23:12:21.045Z,69.50
2017-08-07T23:14:48.584Z,69.30
2017-08-07T23:17:16.120Z,69.40
2017-08-07T23:19:45.081Z,70.00
2017-08-07T23:22:12.616Z,70.00
2017-08-07T23:24:40.165Z,70.10
2017-08-07T23:27:07.746Z,70.50
2017-08-07T23:29:35.293Z,70.10
2017-08-07T23:32:02.833Z,70.40
2017-08-07T23:34:30.409Z,70.70
2017-08-07T23:36:57.957Z,70.70
2017-08-07T23:39:25.497Z,70.70
2017-08-07T23:41:53.146Z,71.10
2017-08-07T23:44:21.461Z,71.40
2017-08-07T23:46:49.000Z,70.70
2017-08-07T23:49:16.577Z,70.40
2017-08-07T23:51:44.129Z,70.30
2017-08-07T23:54:11.673Z,69.90
2017-08-07T23:56:40.027Z,70.30
2017-08-07T23:59:08.040Z,70.20
